• Join FlightAware (Why Join?)
  • Login
  • US Flag 
07:24PM EST


 

Airport Tracker/Info


-or-


 

Live Flight TrackerFlight Track Log ✈ EJA834 ✈ 11-May-2013 ✈ KTRI - KSUS

Flight Track Log - Related Links

Times and Time Zones

All times are in EDT time to prevent confusion due to time zone crossing. See the EJA834 flight status page for this flight to view local times or setup timezone preferences in your user account.

Time Position Orientation Groundspeed Altitude Reporting Facility
EDT Latitude Longitude Course Direction KTS MPH feet Rate Location/Type
01:46PM 36.4481 -82.4372 225° Southwest 209 241 3,200  Level Indianapolis Center
01:47PM 36.4033 -82.4936 225° Southwest 233 268 7,400 3,171 Climbing Indianapolis Center
01:48PM 36.4175 -82.5739 282° West 244 281 9,700 1,366 Climbing Indianapolis Center
01:49PM 36.4461 -82.6683 291° West 281 323 10,200 1,513 Climbing Indianapolis Center
01:50PM 36.4750 -82.7658 290° West 269 310 12,700 2,644 Climbing Atlanta Center
01:51PM 36.5053 -82.8608 292° West 288 331 15,400 2,750 Climbing Atlanta Center
01:52PM 36.5353 -82.9561 291° West 300 345 18,200 2,540 Climbing Atlanta Center
01:54PM 36.6006 -83.1539 292° West 288 331 23,400 2,368 Climbing Indianapolis Center
01:55PM 36.6306 -83.2508 291° West 295 339 25,700 2,164 Climbing Indianapolis Center
01:56PM 36.6606 -83.3464 291° West 295 339 27,800 2,000 Climbing Indianapolis Center
01:57PM 36.6900 -83.4403 291° West 292 336 29,800 1,951 Climbing Indianapolis Center
01:58PM 36.7178 -83.5300 291° West 281 323 31,800 1,967 Climbing Indianapolis Center
01:59PM 36.7439 -83.6147 291° West 267 307 33,800 1,951 Climbing Indianapolis Center
02:00PM 36.7683 -83.6950 291° West 253 291 35,800 1,073 Climbing Indianapolis Center
02:01PM 36.7936 -83.7778 291° West 253 291 36,000 537 Climbing Indianapolis Center
02:02PM 36.8033 -83.8731 277° West 273 314 36,900 1,024 Climbing Indianapolis Center
02:03PM 36.8122 -83.9844 276° West 276 318 38,100 1,073 Climbing Indianapolis Center
02:04PM 36.8392 -84.0772 290° West 284 327 39,100 927 Climbing Indianapolis Center
02:05PM 36.8700 -84.1719 292° West 292 336 40,000 443 Climbing Indianapolis Center
02:06PM 36.9008 -84.2706 291° West 301 346 40,000  Level Indianapolis Center
02:08PM 36.9339 -84.3756 292° West 320 368 40,000  Level Indianapolis Center
02:09PM 36.9664 -84.4819 291° West 327 376 40,000  Level Indianapolis Center
02:10PM 36.9978 -84.5822 291° West 328 377 40,000  Level Indianapolis Center
02:11PM 37.0378 -84.7131 291° West 334 384 40,000  Level Indianapolis Center
02:12PM 37.0675 -84.8086 291° West 337 388 40,000  Level Indianapolis Center
02:13PM 37.1064 -84.9356 291° West 335 386 40,000  Level Indianapolis Center
02:14PM 37.1392 -85.0453 291° West 336 387 40,000  Level Indianapolis Center
02:15PM 37.1722 -85.1539 291° West 334 384 40,000  Level Indianapolis Center
02:16PM 37.2053 -85.2633 291° West 334 384 40,000  Level Indianapolis Center
02:17PM 37.2378 -85.3714 291° West 333 383 40,000  Level Indianapolis Center
02:18PM 37.2719 -85.4817 291° West 336 387 40,000  Level Indianapolis Center
02:19PM 37.3042 -85.5872 291° West 342 394 40,000  Level Indianapolis Center
02:20PM 37.3389 -85.6994 291° West 344 396 40,000  Level Indianapolis Center
02:21PM 37.3803 -85.8358 291° West 345 397 40,000  Level Indianapolis Center
02:22PM 37.4067 -85.9364 288° West 350 403 40,000  Level Indianapolis Center
02:23PM 37.4464 -86.0711 290° West 350 403 40,000  Level Indianapolis Center
02:24PM 37.4806 -86.1861 291° West 350 403 40,000  Level Indianapolis Center
02:25PM 37.5147 -86.3019 290° West 351 404 40,000  Level Indianapolis Center
02:26PM 37.5489 -86.4197 290° West 355 409 40,000  Level Indianapolis Center
02:27PM 37.5811 -86.5331 290° West 355 409 40,000  Level Indianapolis Center
02:28PM 37.6150 -86.6503 290° West 355 409 40,000  Level Indianapolis Center
02:29PM 37.6492 -86.7678 290° West 355 409 40,000  Level Indianapolis Center
02:30PM 37.6836 -86.8872 290° West 359 413 40,000  Level Indianapolis Center
02:31PM 37.7172 -87.0081 289° West 361 415 40,000  Level Indianapolis Center
02:32PM 37.7514 -87.1278 290° West 360 414 40,000  Level Indianapolis Center
02:33PM 37.7858 -87.2522 289° West 361 415 40,000  Level Indianapolis Center
02:34PM 37.7944 -87.3706 275° West 347 399 40,000 -439 Level Indianapolis Center
02:35PM 37.7925 -87.5192 269° West 349 402 39,100 -1,366 Descending Indianapolis Center
02:36PM 37.7894 -87.6433 268° West 351 404 37,200 -2,098 Descending Indianapolis Center
02:37PM 37.7933 -87.7589 272° West 331 381 34,800 -1,820 Descending Indianapolis Center
02:38PM 37.8136 -87.8792 282° West 343 395 33,500 -1,317 Descending Indianapolis Center
02:39PM 37.8372 -88.0081 283° West 367 422 32,100 -732 Descending Indianapolis Center
02:40PM 37.8617 -88.1439 283° West 390 449 32,000 -49 Descending Indianapolis Center
02:41PM 37.8853 -88.2786 283° West 390 449 32,000  Level Indianapolis Center
02:42PM 37.8956 -88.3331 283° West 391 450 32,000 -282 Level Kansas City Center
02:43PM 37.9186 -88.4675 282° West 390 449 31,600 -683 Descending Kansas City Center
02:44PM 37.9406 -88.5975 282° West 382 440 30,600 -596 Descending Kansas City Center
02:45PM 37.9753 -88.8072 282° West 380 437 30,000 -293 Descending Indianapolis Center
02:46PM 37.9872 -88.8644 285° West 384 442 30,000 -706 Level Kansas City Center
02:47PM 38.0081 -88.9983 281° West 387 445 29,000 -2,098 Descending Kansas City Center
02:48PM 38.0314 -89.1442 282° West 354 407 25,700 -2,855 Descending Kansas City Center
02:49PM 38.0519 -89.2644 282° West 350 403 23,100 -2,537 Descending Kansas City Center
02:50PM 38.0711 -89.3831 282° West 345 397 20,500 -2,634 Descending Kansas City Center
02:51PM 38.0903 -89.5033 281° West 327 376 17,700 -2,537 Descending Kansas City Center
02:52PM 38.1092 -89.6100 283° West 313 360 15,300 -2,098 Descending Kansas City Center
02:53PM 38.1250 -89.7072 282° West 310 357 13,400 -1,610 Descending Kansas City Center
02:54PM 38.1433 -89.8075 283° West 299 344 12,000 -1,171 Descending Kansas City Center
02:55PM 38.1986 -89.8783 315° West 285 328 11,000 -1,210 Descending Kansas City Center
02:56PM 38.2486 -89.9481 312° West 272 313 9,500 -1,463 Descending Kansas City Center
02:57PM 38.3053 -90.0272 312° West 256 295 8,000 -829 Descending Kansas City Center
02:58PM 38.3517 -90.0917 313° West 252 290 7,800 -927 Descending Kansas City Center
02:59PM 38.3958 -90.1528 313° West 244 281 6,100 -1,756 Descending Kansas City Center
03:00PM 38.4375 -90.2119 312° West 234 269 4,200 -1,016 Descending Kansas City Center
03:01PM 38.4792 -90.2700 313° West 227 261 4,000 -244 Descending Kansas City Center
03:02PM 38.5217 -90.3306 312° West 227 261 3,700 -488 Descending Kansas City Center
03:03PM 38.5639 -90.3894 313° West 226 260 3,000 -339 Descending Kansas City Center
03:04PM 38.6053 -90.4486 312° West 223 257 3,000 -244 Level Kansas City Center
03:05PM 38.6406 -90.4997 311° West 203 234 2,500 -537 Descending Kansas City Center
03:06PM 38.6653 -90.5492 303° West 177 204 1,900 -780 Descending Kansas City Center
03:07PM 38.6667 -90.6056 272° West 148 170 900 -732 Descending Kansas City Center
03:08PM 38.6600 -90.6511 259° West 133 153 400 -484 Descending Kansas City Center
03:10PM 38.6621 -90.6521 303° West  Level Estimated
03:17PM 38.6621 -90.6521 303° West  Level Estimated